Bolsover, United Kingdom
Current Conditions -  °F | °C
As of 1:20 PM on Friday 24 Oct 2014 (Local Time) from EGCN Reporting Station
Scattered Clouds Scattered Clouds  
Wind Chill: 16°   Ceiling: Unl
Heat Index: 16°   Visibility: 6mi
Dew Point: 13°   Wind: 5mph
Humidity: 82%   Direction: 200°SSW
Pressure: 29.88"   Gusts: NA
Location:  53.23°N, 1.29°W
Report Text: EGCN 241220Z 20004KT 170V230 9999 SCT029 16/13 Q1012
Loading
Personal Weather Stations






























Interactive Weather Map
Tropical Storm Tracking
New forecast layout! Learn more

10-Day Weather Forecast

Advertisements
Track Severe Weather on mobile